sensor_id;sensor_type;location;lat;lon;timestamp;pressure;altitude;pressure_sealevel;temperature;humidity
43488;BME280;29078;41.932;25.554;2023-07-13T00:01:04;99600.88;;;28.48;47.37
43488;BME280;29078;41.932;25.554;2023-07-13T00:03:29;99596.69;;;28.37;47.89
43488;BME280;29078;41.932;25.554;2023-07-13T00:06:00;99599.03;;;28.25;46.47
43488;BME280;29078;41.932;25.554;2023-07-13T00:08:25;99589.56;;;28.17;46.91
43488;BME280;29078;41.932;25.554;2023-07-13T00:10:51;99593.09;;;28.18;47.38
43488;BME280;29078;41.932;25.554;2023-07-13T00:13:19;99594.78;;;28.14;47.36
43488;BME280;29078;41.932;25.554;2023-07-13T00:15:44;99589.72;;;28.07;47.24
43488;BME280;29078;41.932;25.554;2023-07-13T00:18:10;99582.81;;;27.96;47.46
43488;BME280;29078;41.932;25.554;2023-07-13T00:20:35;99581.50;;;27.94;47.69
43488;BME280;29078;41.932;25.554;2023-07-13T00:23:00;99582.66;;;27.88;48.04
43488;BME280;29078;41.932;25.554;2023-07-13T00:25:26;99588.72;;;27.79;49.02
43488;BME280;29078;41.932;25.554;2023-07-13T00:27:53;99580.66;;;27.74;49.37
43488;BME280;29078;41.932;25.554;2023-07-13T00:30:18;99587.19;;;27.73;48.05
43488;BME280;29078;41.932;25.554;2023-07-13T00:32:44;99582.84;;;27.72;47.21
43488;BME280;29078;41.932;25.554;2023-07-13T00:35:09;99584.22;;;27.70;48.27
43488;BME280;29078;41.932;25.554;2023-07-13T00:37:34;99590.97;;;27.72;49.57
43488;BME280;29078;41.932;25.554;2023-07-13T00:40:01;99579.91;;;27.69;49.19
43488;BME280;29078;41.932;25.554;2023-07-13T00:42:26;99584.28;;;27.65;47.93
43488;BME280;29078;41.932;25.554;2023-07-13T00:46:09;99575.94;;;27.61;49.76
43488;BME280;29078;41.932;25.554;2023-07-13T00:47:53;99577.78;;;27.66;48.68
43488;BME280;29078;41.932;25.554;2023-07-13T00:50:19;99576.38;;;27.68;49.08
43488;BME280;29078;41.932;25.554;2023-07-13T00:52:50;99571.81;;;27.64;49.10
43488;BME280;29078;41.932;25.554;2023-07-13T00:55:18;99581.38;;;27.56;48.96
43488;BME280;29078;41.932;25.554;2023-07-13T00:57:44;99578.19;;;27.49;48.86
43488;BME280;29078;41.932;25.554;2023-07-13T01:00:09;99575.00;;;27.42;48.41
43488;BME280;29078;41.932;25.554;2023-07-13T01:02:37;99574.03;;;27.33;50.48
43488;BME280;29078;41.932;25.554;2023-07-13T01:05:09;99582.72;;;27.30;49.45
43488;BME280;29078;41.932;25.554;2023-07-13T01:07:35;99582.22;;;27.28;50.37
43488;BME280;29078;41.932;25.554;2023-07-13T01:10:01;99578.47;;;27.23;51.30
43488;BME280;29078;41.932;25.554;2023-07-13T01:12:27;99572.50;;;27.21;50.36
43488;BME280;29078;41.932;25.554;2023-07-13T01:14:58;99571.53;;;27.12;50.60
43488;BME280;29078;41.932;25.554;2023-07-13T01:17:25;99578.88;;;27.07;50.92
43488;BME280;29078;41.932;25.554;2023-07-13T01:19:51;99570.28;;;27.00;50.59
43488;BME280;29078;41.932;25.554;2023-07-13T01:22:17;99572.47;;;26.98;49.93
43488;BME280;29078;41.932;25.554;2023-07-13T01:24:47;99565.41;;;26.97;51.10
43488;BME280;29078;41.932;25.554;2023-07-13T01:27:14;99569.47;;;26.99;50.43
43488;BME280;29078;41.932;25.554;2023-07-13T01:29:40;99566.78;;;26.99;51.28
43488;BME280;29078;41.932;25.554;2023-07-13T01:32:10;99567.00;;;27.03;51.07
43488;BME280;29078;41.932;25.554;2023-07-13T01:34:36;99560.50;;;27.04;51.61
43488;BME280;29078;41.932;25.554;2023-07-13T01:37:02;99562.41;;;27.03;51.88
43488;BME280;29078;41.932;25.554;2023-07-13T01:39:27;99552.06;;;27.05;50.58
43488;BME280;29078;41.932;25.554;2023-07-13T01:41:53;99557.50;;;27.05;49.02
43488;BME280;29078;41.932;25.554;2023-07-13T01:44:18;99562.44;;;26.98;51.57
43488;BME280;29078;41.932;25.554;2023-07-13T01:46:43;99549.75;;;26.88;51.08
43488;BME280;29078;41.932;25.554;2023-07-13T01:49:08;99552.25;;;26.85;51.30
43488;BME280;29078;41.932;25.554;2023-07-13T01:51:34;99559.31;;;26.81;51.79
43488;BME280;29078;41.932;25.554;2023-07-13T01:53:59;99560.16;;;26.76;50.09
43488;BME280;29078;41.932;25.554;2023-07-13T01:56:24;99563.22;;;26.65;51.59
43488;BME280;29078;41.932;25.554;2023-07-13T01:58:50;99553.28;;;26.55;52.05
43488;BME280;29078;41.932;25.554;2023-07-13T02:01:16;99563.88;;;26.51;52.72
43488;BME280;29078;41.932;25.554;2023-07-13T02:03:42;99566.28;;;26.53;50.67
43488;BME280;29078;41.932;25.554;2023-07-13T02:06:07;99566.53;;;26.56;50.75
43488;BME280;29078;41.932;25.554;2023-07-13T02:08:32;99568.44;;;26.56;51.55
43488;BME280;29078;41.932;25.554;2023-07-13T02:10:58;99568.47;;;26.51;49.56
43488;BME280;29078;41.932;25.554;2023-07-13T02:13:23;99581.56;;;26.39;50.99
43488;BME280;29078;41.932;25.554;2023-07-13T02:15:51;99591.84;;;26.32;51.99
43488;BME280;29078;41.932;25.554;2023-07-13T02:18:16;99591.13;;;26.16;54.43
43488;BME280;29078;41.932;25.554;2023-07-13T02:20:42;99584.41;;;26.08;53.24
43488;BME280;29078;41.932;25.554;2023-07-13T02:23:07;99587.69;;;26.00;53.44
43488;BME280;29078;41.932;25.554;2023-07-13T02:25:32;99585.81;;;25.95;52.62
43488;BME280;29078;41.932;25.554;2023-07-13T02:27:58;99591.78;;;25.92;50.87
43488;BME280;29078;41.932;25.554;2023-07-13T02:30:23;99596.13;;;25.83;52.85
43488;BME280;29078;41.932;25.554;2023-07-13T02:32:49;99596.97;;;25.79;52.09
43488;BME280;29078;41.932;25.554;2023-07-13T02:35:15;99593.19;;;25.75;52.13
43488;BME280;29078;41.932;25.554;2023-07-13T02:37:40;99590.25;;;25.71;53.98
43488;BME280;29078;41.932;25.554;2023-07-13T02:40:06;99589.69;;;25.69;52.14
43488;BME280;29078;41.932;25.554;2023-07-13T02:42:33;99599.41;;;25.65;52.43
43488;BME280;29078;41.932;25.554;2023-07-13T02:44:58;99599.69;;;25.63;53.54
43488;BME280;29078;41.932;25.554;2023-07-13T02:47:24;99593.50;;;25.68;52.38
43488;BME280;29078;41.932;25.554;2023-07-13T02:49:49;99595.66;;;25.71;52.91
43488;BME280;29078;41.932;25.554;2023-07-13T02:52:14;99604.31;;;25.68;53.46
43488;BME280;29078;41.932;25.554;2023-07-13T02:54:39;99605.91;;;25.64;55.80
43488;BME280;29078;41.932;25.554;2023-07-13T02:57:05;99595.94;;;25.59;55.00
43488;BME280;29078;41.932;25.554;2023-07-13T02:59:30;99605.94;;;25.69;52.40
43488;BME280;29078;41.932;25.554;2023-07-13T03:01:56;99600.50;;;25.74;52.64
43488;BME280;29078;41.932;25.554;2023-07-13T03:04:21;99603.75;;;25.76;52.81
43488;BME280;29078;41.932;25.554;2023-07-13T03:06:46;99604.56;;;25.72;54.06
43488;BME280;29078;41.932;25.554;2023-07-13T03:09:12;99597.53;;;25.71;54.59
43488;BME280;29078;41.932;25.554;2023-07-13T03:11:37;99593.50;;;25.68;53.75
43488;BME280;29078;41.932;25.554;2023-07-13T03:14:03;99602.94;;;25.71;54.58
43488;BME280;29078;41.932;25.554;2023-07-13T03:16:28;99595.94;;;25.70;53.17
43488;BME280;29078;41.932;25.554;2023-07-13T03:18:53;99597.81;;;25.74;53.79
43488;BME280;29078;41.932;25.554;2023-07-13T03:21:19;99613.78;;;25.71;52.70
43488;BME280;29078;41.932;25.554;2023-07-13T03:23:44;99617.03;;;25.68;53.74
43488;BME280;29078;41.932;25.554;2023-07-13T03:26:11;99621.63;;;25.67;53.34
43488;BME280;29078;41.932;25.554;2023-07-13T03:28:38;99610.53;;;25.69;54.74
43488;BME280;29078;41.932;25.554;2023-07-13T03:31:04;99616.47;;;25.71;54.78
43488;BME280;29078;41.932;25.554;2023-07-13T03:33:30;99615.13;;;25.68;53.05
43488;BME280;29078;41.932;25.554;2023-07-13T03:35:56;99617.84;;;25.53;56.24
43488;BME280;29078;41.932;25.554;2023-07-13T03:38:21;99615.69;;;25.50;54.74
43488;BME280;29078;41.932;25.554;2023-07-13T03:40:46;99613.81;;;25.45;54.64
43488;BME280;29078;41.932;25.554;2023-07-13T03:43:11;99614.63;;;25.41;54.39
43488;BME280;29078;41.932;25.554;2023-07-13T03:45:39;99614.91;;;25.44;53.34
43488;BME280;29078;41.932;25.554;2023-07-13T03:48:05;99605.72;;;25.35;55.25
43488;BME280;29078;41.932;25.554;2023-07-13T03:50:30;99608.16;;;25.37;55.06
43488;BME280;29078;41.932;25.554;2023-07-13T03:52:57;99615.44;;;25.41;54.26
43488;BME280;29078;41.932;25.554;2023-07-13T03:55:22;99615.19;;;25.38;55.36
43488;BME280;29078;41.932;25.554;2023-07-13T03:57:47;99615.19;;;25.38;53.47
43488;BME280;29078;41.932;25.554;2023-07-13T04:00:13;99617.06;;;25.37;54.93
43488;BME280;29078;41.932;25.554;2023-07-13T04:02:38;99620.84;;;25.41;55.25
43488;BME280;29078;41.932;25.554;2023-07-13T04:05:04;99627.06;;;25.47;54.04
43488;BME280;29078;41.932;25.554;2023-07-13T04:07:29;99623.25;;;25.48;54.89
43488;BME280;29078;41.932;25.554;2023-07-13T04:09:54;99618.91;;;25.57;54.54
43488;BME280;29078;41.932;25.554;2023-07-13T04:12:19;99621.06;;;25.65;53.57
43488;BME280;29078;41.932;25.554;2023-07-13T04:14:45;99621.63;;;25.67;54.81
43488;BME280;29078;41.932;25.554;2023-07-13T04:17:10;99625.41;;;25.71;53.93
43488;BME280;29078;41.932;25.554;2023-07-13T04:19:35;99624.03;;;25.74;53.45
43488;BME280;29078;41.932;25.554;2023-07-13T04:22:01;99619.94;;;25.81;53.11
43488;BME280;29078;41.932;25.554;2023-07-13T04:24:26;99624.56;;;25.81;53.70
43488;BME280;29078;41.932;25.554;2023-07-13T04:26:51;99615.34;;;25.82;52.55
43488;BME280;29078;41.932;25.554;2023-07-13T04:29:16;99612.91;;;25.85;53.68
43488;BME280;29078;41.932;25.554;2023-07-13T04:32:00;99625.59;;;25.90;54.03
43488;BME280;29078;41.932;25.554;2023-07-13T04:34:26;99620.44;;;25.93;53.54
43488;BME280;29078;41.932;25.554;2023-07-13T04:36:51;99622.84;;;26.00;54.63
43488;BME280;29078;41.932;25.554;2023-07-13T04:39:17;99629.59;;;26.08;53.72
43488;BME280;29078;41.932;25.554;2023-07-13T04:41:42;99631.19;;;26.14;52.82
43488;BME280;29078;41.932;25.554;2023-07-13T04:44:08;99622.25;;;26.18;53.72
43488;BME280;29078;41.932;25.554;2023-07-13T04:46:33;99634.66;;;26.24;53.04
43488;BME280;29078;41.932;25.554;2023-07-13T04:48:58;99629.78;;;26.26;53.18
43488;BME280;29078;41.932;25.554;2023-07-13T04:51:24;99632.75;;;26.30;52.80
43488;BME280;29078;41.932;25.554;2023-07-13T04:53:50;99633.56;;;26.36;53.63
43488;BME280;29078;41.932;25.554;2023-07-13T04:56:16;99637.84;;;26.42;52.45
43488;BME280;29078;41.932;25.554;2023-07-13T04:58:41;99642.69;;;26.45;53.22
43488;BME280;29078;41.932;25.554;2023-07-13T05:01:06;99646.47;;;26.49;52.90
43488;BME280;29078;41.932;25.554;2023-07-13T05:03:32;99648.06;;;26.55;52.36
43488;BME280;29078;41.932;25.554;2023-07-13T05:05:59;99641.50;;;26.61;52.59
43488;BME280;29078;41.932;25.554;2023-07-13T05:08:25;99643.09;;;26.67;52.10
43488;BME280;29078;41.932;25.554;2023-07-13T05:10:50;99646.06;;;26.71;50.99
43488;BME280;29078;41.932;25.554;2023-07-13T05:13:16;99646.84;;;26.76;52.41
43488;BME280;29078;41.932;25.554;2023-07-13T05:15:41;99646.81;;;26.81;52.66
43488;BME280;29078;41.932;25.554;2023-07-13T05:18:07;99642.16;;;26.87;51.73
43488;BME280;29078;41.932;25.554;2023-07-13T05:20:32;99645.88;;;26.96;52.18
43488;BME280;29078;41.932;25.554;2023-07-13T05:22:57;99646.94;;;27.05;51.57
43488;BME280;29078;41.932;25.554;2023-07-13T05:25:22;99639.28;;;27.12;51.82
43488;BME280;29078;41.932;25.554;2023-07-13T05:27:48;99645.69;;;27.21;51.39
43488;BME280;29078;41.932;25.554;2023-07-13T05:30:13;99651.09;;;27.27;51.71
43488;BME280;29078;41.932;25.554;2023-07-13T05:32:39;99656.75;;;27.30;51.28
43488;BME280;29078;41.932;25.554;2023-07-13T05:35:05;99656.97;;;27.34;51.16
43488;BME280;29078;41.932;25.554;2023-07-13T05:37:30;99656.94;;;27.39;50.69
43488;BME280;29078;41.932;25.554;2023-07-13T05:39:55;99647.66;;;27.45;50.47
43488;BME280;29078;41.932;25.554;2023-07-13T05:42:21;99650.56;;;27.53;50.55
43488;BME280;29078;41.932;25.554;2023-07-13T05:44:46;99657.31;;;27.61;49.78
43488;BME280;29078;41.932;25.554;2023-07-13T05:47:11;99648.91;;;27.58;50.11
43488;BME280;29078;41.932;25.554;2023-07-13T05:49:39;99654.31;;;27.63;49.96
43488;BME280;29078;41.932;25.554;2023-07-13T05:52:04;99656.44;;;27.66;49.93
43488;BME280;29078;41.932;25.554;2023-07-13T05:54:29;99655.88;;;27.69;50.47
43488;BME280;29078;41.932;25.554;2023-07-13T05:56:55;99656.63;;;27.74;49.78
43488;BME280;29078;41.932;25.554;2023-07-13T05:59:20;99647.84;;;27.82;49.80
43488;BME280;29078;41.932;25.554;2023-07-13T06:01:45;99650.97;;;27.95;49.66
43488;BME280;29078;41.932;25.554;2023-07-13T06:04:10;99650.31;;;28.03;49.42
43488;BME280;29078;41.932;25.554;2023-07-13T06:06:36;99652.38;;;28.11;49.00
43488;BME280;29078;41.932;25.554;2023-07-13T06:09:01;99648.78;;;28.15;49.07
43488;BME280;29078;41.932;25.554;2023-07-13T06:11:27;99645.19;;;28.20;48.65
43488;BME280;29078;41.932;25.554;2023-07-13T06:13:54;99650.34;;;28.27;48.18
43488;BME280;29078;41.932;25.554;2023-07-13T06:16:20;99651.44;;;28.26;48.56
43488;BME280;29078;41.932;25.554;2023-07-13T06:18:45;99648.44;;;28.27;48.60
43488;BME280;29078;41.932;25.554;2023-07-13T06:21:15;99650.25;;;28.32;48.22
43488;BME280;29078;41.932;25.554;2023-07-13T06:23:41;99652.31;;;28.40;47.88
43488;BME280;29078;41.932;25.554;2023-07-13T06:26:06;99648.16;;;28.47;47.57
43488;BME280;29078;41.932;25.554;2023-07-13T06:28:32;99652.63;;;28.57;47.70
43488;BME280;29078;41.932;25.554;2023-07-13T06:30:58;99643.00;;;28.65;46.74
43488;BME280;29078;41.932;25.554;2023-07-13T06:33:24;99641.81;;;28.71;47.09
43488;BME280;29078;41.932;25.554;2023-07-13T06:35:49;99643.88;;;28.79;47.01
43488;BME280;29078;41.932;25.554;2023-07-13T06:38:15;99641.31;;;28.88;46.73
43488;BME280;29078;41.932;25.554;2023-07-13T06:40:40;99637.09;;;28.95;46.59
43488;BME280;29078;41.932;25.554;2023-07-13T06:43:06;99631.38;;;28.97;46.38
43488;BME280;29078;41.932;25.554;2023-07-13T06:45:32;99641.38;;;29.01;46.81
43488;BME280;29078;41.932;25.554;2023-07-13T06:47:58;99633.16;;;29.06;46.40
43488;BME280;29078;41.932;25.554;2023-07-13T06:50:23;99634.69;;;29.13;46.42
43488;BME280;29078;41.932;25.554;2023-07-13T06:52:48;99629.94;;;29.18;45.96
43488;BME280;29078;41.932;25.554;2023-07-13T06:55:13;99624.63;;;29.27;46.10
43488;BME280;29078;41.932;25.554;2023-07-13T06:57:39;99624.53;;;29.32;46.15
43488;BME280;29078;41.932;25.554;2023-07-13T07:00:04;99618.72;;;29.38;45.92
43488;BME280;29078;41.932;25.554;2023-07-13T07:02:31;99623.47;;;29.47;45.44
43488;BME280;29078;41.932;25.554;2023-07-13T07:04:56;99618.75;;;29.52;45.36
43488;BME280;29078;41.932;25.554;2023-07-13T07:07:23;99616.75;;;29.58;45.20
43488;BME280;29078;41.932;25.554;2023-07-13T07:09:48;99619.06;;;29.64;45.07
43488;BME280;29078;41.932;25.554;2023-07-13T07:12:14;99615.13;;;29.70;44.93
43488;BME280;29078;41.932;25.554;2023-07-13T07:14:39;99620.00;;;29.73;44.87
43488;BME280;29078;41.932;25.554;2023-07-13T07:17:04;99624.44;;;29.83;44.75
43488;BME280;29078;41.932;25.554;2023-07-13T07:19:30;99618.88;;;29.88;44.37
43488;BME280;29078;41.932;25.554;2023-07-13T07:21:55;99615.75;;;29.95;44.28
43488;BME280;29078;41.932;25.554;2023-07-13T07:24:20;99622.41;;;30.02;43.77
43488;BME280;29078;41.932;25.554;2023-07-13T07:26:46;99610.31;;;30.09;43.87
43488;BME280;29078;41.932;25.554;2023-07-13T07:29:11;99607.16;;;30.15;43.70
43488;BME280;29078;41.932;25.554;2023-07-13T07:31:36;99621.38;;;30.26;43.73
43488;BME280;29078;41.932;25.554;2023-07-13T07:34:02;99613.59;;;30.33;43.69
43488;BME280;29078;41.932;25.554;2023-07-13T07:36:27;99618.31;;;30.41;43.29
43488;BME280;29078;41.932;25.554;2023-07-13T07:38:53;99614.06;;;30.49;43.00
43488;BME280;29078;41.932;25.554;2023-07-13T07:41:18;99614.13;;;30.57;42.76
43488;BME280;29078;41.932;25.554;2023-07-13T07:43:44;99611.00;;;30.64;42.55
43488;BME280;29078;41.932;25.554;2023-07-13T07:46:09;99618.94;;;30.74;42.40
43488;BME280;29078;41.932;25.554;2023-07-13T07:48:34;99615.78;;;30.81;42.38
43488;BME280;29078;41.932;25.554;2023-07-13T07:50:59;99609.59;;;30.89;42.56
43488;BME280;29078;41.932;25.554;2023-07-13T07:53:25;99610.56;;;30.93;41.59
43488;BME280;29078;41.932;25.554;2023-07-13T07:55:50;99607.59;;;31.03;41.49
43488;BME280;29078;41.932;25.554;2023-07-13T07:58:16;99606.81;;;31.11;41.27
43488;BME280;29078;41.932;25.554;2023-07-13T08:00:41;99611.78;;;31.23;41.44
43488;BME280;29078;41.932;25.554;2023-07-13T08:03:07;99602.66;;;31.27;40.94
43488;BME280;29078;41.932;25.554;2023-07-13T08:05:34;99604.91;;;31.34;40.58
43488;BME280;29078;41.932;25.554;2023-07-13T08:08:00;99607.38;;;31.44;41.06
43488;BME280;29078;41.932;25.554;2023-07-13T08:10:25;99615.09;;;31.51;39.66
43488;BME280;29078;41.932;25.554;2023-07-13T08:12:51;99609.19;;;31.57;40.22
43488;BME280;29078;41.932;25.554;2023-07-13T08:15:18;99607.28;;;31.67;40.28
43488;BME280;29078;41.932;25.554;2023-07-13T08:17:45;99603.34;;;31.73;40.04
43488;BME280;29078;41.932;25.554;2023-07-13T08:20:10;99604.31;;;31.77;39.40
43488;BME280;29078;41.932;25.554;2023-07-13T08:22:36;99603.22;;;31.86;39.73
43488;BME280;29078;41.932;25.554;2023-07-13T08:25:01;99602.75;;;31.93;39.69
43488;BME280;29078;41.932;25.554;2023-07-13T08:27:27;99605.84;;;32.00;39.15
43488;BME280;29078;41.932;25.554;2023-07-13T08:29:53;99604.41;;;32.11;39.16
43488;BME280;29078;41.932;25.554;2023-07-13T08:32:18;99599.44;;;32.22;39.22
43488;BME280;29078;41.932;25.554;2023-07-13T08:34:44;99595.28;;;32.33;39.36
43488;BME280;29078;41.932;25.554;2023-07-13T08:37:09;99601.72;;;32.46;39.14
43488;BME280;29078;41.932;25.554;2023-07-13T08:39:35;99598.81;;;32.60;38.85
43488;BME280;29078;41.932;25.554;2023-07-13T08:42:02;99603.34;;;32.73;39.14
43488;BME280;29078;41.932;25.554;2023-07-13T08:47:14;99607.66;;;33.00;38.57
43488;BME280;29078;41.932;25.554;2023-07-13T08:49:40;99604.25;;;33.11;39.09
43488;BME280;29078;41.932;25.554;2023-07-13T08:52:09;99594.91;;;33.21;37.67
43488;BME280;29078;41.932;25.554;2023-07-13T08:54:38;99595.84;;;33.34;38.44
43488;BME280;29078;41.932;25.554;2023-07-13T08:57:13;99592.28;;;33.42;38.13
43488;BME280;29078;41.932;25.554;2023-07-13T08:59:38;99607.09;;;33.50;37.96
43488;BME280;29078;41.932;25.554;2023-07-13T09:12:25;99596.28;;;34.12;36.39
43488;BME280;29078;41.932;25.554;2023-07-13T09:14:52;99590.56;;;34.26;35.54
43488;BME280;29078;41.932;25.554;2023-07-13T09:17:23;99587.13;;;34.37;35.30
43488;BME280;29078;41.932;25.554;2023-07-13T09:19:53;99577.81;;;34.51;34.76
43488;BME280;29078;41.932;25.554;2023-07-13T09:22:21;99569.75;;;34.66;35.04
43488;BME280;29078;41.932;25.554;2023-07-13T09:24:54;99576.22;;;34.83;34.31
43488;BME280;29078;41.932;25.554;2023-07-13T09:27:22;99569.09;;;35.02;34.17
43488;BME280;29078;41.932;25.554;2023-07-13T09:29:49;99569.94;;;35.15;33.45
43488;BME280;29078;41.932;25.554;2023-07-13T09:32:16;99565.84;;;35.33;33.32
43488;BME280;29078;41.932;25.554;2023-07-13T09:34:49;99563.22;;;35.49;33.50
43488;BME280;29078;41.932;25.554;2023-07-13T09:37:14;99563.34;;;35.65;31.87
43488;BME280;29078;41.932;25.554;2023-07-13T09:39:40;99556.38;;;35.80;32.76
43488;BME280;29078;41.932;25.554;2023-07-13T09:42:12;99555.78;;;35.98;31.94
43488;BME280;29078;41.932;25.554;2023-07-13T09:44:59;99547.97;;;36.13;31.87
43488;BME280;29078;41.932;25.554;2023-07-13T09:47:26;99544.25;;;36.33;33.04
43488;BME280;29078;41.932;25.554;2023-07-13T09:49:56;99539.53;;;36.46;31.10
43488;BME280;29078;41.932;25.554;2023-07-13T09:52:23;99542.13;;;36.54;31.24
43488;BME280;29078;41.932;25.554;2023-07-13T09:54:49;99540.66;;;36.73;31.73
43488;BME280;29078;41.932;25.554;2023-07-13T09:57:19;99532.97;;;36.94;30.67
43488;BME280;29078;41.932;25.554;2023-07-13T09:59:49;99527.56;;;37.13;30.49
43488;BME280;29078;41.932;25.554;2023-07-13T10:04:53;99527.41;;;37.53;29.47
43488;BME280;29078;41.932;25.554;2023-07-13T10:07:22;99516.25;;;37.66;28.97
43488;BME280;29078;41.932;25.554;2023-07-13T10:09:47;99511.72;;;37.73;28.90
43488;BME280;29078;41.932;25.554;2023-07-13T10:12:17;99521.53;;;37.90;28.90
43488;BME280;29078;41.932;25.554;2023-07-13T10:14:43;99509.97;;;38.00;29.00
43488;BME280;29078;41.932;25.554;2023-07-13T10:17:10;99507.25;;;38.20;28.65
43488;BME280;29078;41.932;25.554;2023-07-13T10:19:37;99499.19;;;38.30;29.82
43488;BME280;29078;41.932;25.554;2023-07-13T10:22:10;99489.44;;;38.36;28.69
43488;BME280;29078;41.932;25.554;2023-07-13T10:24:38;99483.16;;;38.59;28.01
43488;BME280;29078;41.932;25.554;2023-07-13T10:29:38;99483.56;;;39.03;26.71
43488;BME280;29078;41.932;25.554;2023-07-13T10:32:12;99481.91;;;39.21;26.74
43488;BME280;29078;41.932;25.554;2023-07-13T10:34:37;99471.88;;;39.36;27.23
43488;BME280;29078;41.932;25.554;2023-07-13T10:37:04;99464.13;;;39.45;26.88
43488;BME280;29078;41.932;25.554;2023-07-13T10:39:30;99465.50;;;39.55;25.97
43488;BME280;29078;41.932;25.554;2023-07-13T10:41:59;99466.81;;;39.64;26.91
43488;BME280;29078;41.932;25.554;2023-07-13T10:44:28;99461.84;;;39.77;24.91
43488;BME280;29078;41.932;25.554;2023-07-13T10:46:55;99455.63;;;39.87;24.55
43488;BME280;29078;41.932;25.554;2023-07-13T10:49:21;99453.03;;;39.98;24.11
43488;BME280;29078;41.932;25.554;2023-07-13T10:51:47;99458.72;;;40.12;25.41
43488;BME280;29078;41.932;25.554;2023-07-13T10:54:19;99451.78;;;40.25;26.71
43488;BME280;29078;41.932;25.554;2023-07-13T10:56:48;99456.84;;;40.20;27.53
43488;BME280;29078;41.932;25.554;2023-07-13T10:59:32;99458.53;;;40.28;27.49
43488;BME280;29078;41.932;25.554;2023-07-13T11:04:45;99462.03;;;40.62;25.72
43488;BME280;29078;41.932;25.554;2023-07-13T11:07:20;99455.47;;;40.77;23.05
43488;BME280;29078;41.932;25.554;2023-07-13T11:09:48;99459.84;;;40.78;25.17
43488;BME280;29078;41.932;25.554;2023-07-13T11:15:06;99446.56;;;40.98;24.26
43488;BME280;29078;41.932;25.554;2023-07-13T11:20:03;99432.84;;;41.16;23.94
43488;BME280;29078;41.932;25.554;2023-07-13T11:22:46;99438.38;;;41.16;24.48
43488;BME280;29078;41.932;25.554;2023-07-13T11:35:31;99425.34;;;41.85;22.66
43488;BME280;29078;41.932;25.554;2023-07-13T11:37:58;99431.31;;;41.95;22.40
43488;BME280;29078;41.932;25.554;2023-07-13T11:40:24;99423.00;;;41.91;25.04
43488;BME280;29078;41.932;25.554;2023-07-13T11:42:58;99424.59;;;41.99;23.82
43488;BME280;29078;41.932;25.554;2023-07-13T11:45:23;99423.47;;;42.11;21.72
43488;BME280;29078;41.932;25.554;2023-07-13T11:47:49;99425.47;;;42.14;24.33
43488;BME280;29078;41.932;25.554;2023-07-13T11:50:22;99420.31;;;42.12;24.74
43488;BME280;29078;41.932;25.554;2023-07-13T11:52:48;99423.47;;;42.14;23.02
43488;BME280;29078;41.932;25.554;2023-07-13T11:55:16;99419.53;;;42.19;23.08
43488;BME280;29078;41.932;25.554;2023-07-13T11:57:45;99411.22;;;42.26;21.89
43488;BME280;29078;41.932;25.554;2023-07-13T12:00:15;99406.84;;;42.32;21.51
43488;BME280;29078;41.932;25.554;2023-07-13T12:02:44;99404.50;;;42.38;22.67
43488;BME280;29078;41.932;25.554;2023-07-13T12:05:11;99402.94;;;42.44;21.37
43488;BME280;29078;41.932;25.554;2023-07-13T12:07:37;99415.97;;;42.33;22.53
43488;BME280;29078;41.932;25.554;2023-07-13T12:12:32;99403.75;;;42.52;20.99
43488;BME280;29078;41.932;25.554;2023-07-13T12:14:58;99406.94;;;42.61;21.41
43488;BME280;29078;41.932;25.554;2023-07-13T12:17:24;99402.56;;;42.70;21.95
43488;BME280;29078;41.932;25.554;2023-07-13T12:19:50;99396.19;;;42.80;20.70
43488;BME280;29078;41.932;25.554;2023-07-13T12:22:17;99392.22;;;42.85;21.25
43488;BME280;29078;41.932;25.554;2023-07-13T12:24:43;99394.22;;;42.70;21.70
43488;BME280;29078;41.932;25.554;2023-07-13T12:27:26;99330.34;;;42.28;21.66
43488;BME280;29078;41.932;25.554;2023-07-13T12:32:18;99381.53;;;42.80;21.42
43488;BME280;29078;41.932;25.554;2023-07-13T12:34:54;99381.53;;;42.80;21.73
43488;BME280;29078;41.932;25.554;2023-07-13T12:37:21;99381.16;;;42.89;20.91
43488;BME280;29078;41.932;25.554;2023-07-13T12:39:47;99367.25;;;42.92;21.18
43488;BME280;29078;41.932;25.554;2023-07-13T12:42:20;99364.47;;;42.96;20.77
43488;BME280;29078;41.932;25.554;2023-07-13T12:44:48;99368.81;;;42.97;23.03
43488;BME280;29078;41.932;25.554;2023-07-13T12:47:14;99368.44;;;42.95;21.02
43488;BME280;29078;41.932;25.554;2023-07-13T12:49:42;99355.31;;;42.99;21.72
43488;BME280;29078;41.932;25.554;2023-07-13T12:52:19;99351.75;;;42.95;22.79
43488;BME280;29078;41.932;25.554;2023-07-13T12:54:58;99363.66;;;43.02;21.13
43488;BME280;29078;41.932;25.554;2023-07-13T12:57:25;99363.28;;;42.97;22.19
43488;BME280;29078;41.932;25.554;2023-07-13T12:59:54;99353.75;;;42.94;21.35
43488;BME280;29078;41.932;25.554;2023-07-13T13:04:51;99347.00;;;42.99;21.32
43488;BME280;29078;41.932;25.554;2023-07-13T13:07:16;99347.75;;;43.10;21.09
43488;BME280;29078;41.932;25.554;2023-07-13T13:09:44;99351.72;;;43.16;22.15
43488;BME280;29078;41.932;25.554;2023-07-13T13:12:09;99348.13;;;43.23;21.40
43488;BME280;29078;41.932;25.554;2023-07-13T13:14:35;99337.78;;;43.37;21.31
43488;BME280;29078;41.932;25.554;2023-07-13T13:17:01;99342.53;;;43.40;20.97
43488;BME280;29078;41.932;25.554;2023-07-13T13:19:27;99333.38;;;43.43;19.39
43488;BME280;29078;41.932;25.554;2023-07-13T13:21:53;99331.81;;;43.39;20.41
43488;BME280;29078;41.932;25.554;2023-07-13T13:24:20;99327.81;;;43.47;21.22
43488;BME280;29078;41.932;25.554;2023-07-13T13:26:46;99321.81;;;43.52;20.46
43488;BME280;29078;41.932;25.554;2023-07-13T13:29:13;99319.06;;;43.49;20.22
43488;BME280;29078;41.932;25.554;2023-07-13T13:31:39;99319.16;;;43.27;21.18